Time;durP1;ratioP1;P1;durP2;ratioP2;P2;SDS_P1;SDS_P2;PMS_P1;PMS_P2;Temp;Humidity;BMP_temperature;BMP_pressure;BME280_temperature;BME280_humidity;BME280_pressure;Samples;Min_cycle;Max_cycle;Signal;HPM_P1;HPM_P2
2023/04/14 00:00:16;;;;;;;35.47;12.60;;;;;;;7.64;86.53;99215.28;5010967;28;20049;-86
2023/04/14 00:02:43;;;;;;;33.80;10.27;;;;;;;7.68;85.90;99214.03;4993578;28;20048;-85
2023/04/14 00:05:10;;;;;;;32.40;10.95;;;;;;;7.67;85.57;99219.47;5011074;28;20141;-85
2023/04/14 00:07:37;;;;;;;25.15;9.88;;;;;;;7.71;85.06;99220.84;4997706;28;20048;-85
2023/04/14 00:10:05;;;;;;;28.92;9.80;;;;;;;7.55;85.38;99208.97;4990144;28;20088;-85
2023/04/14 00:12:31;;;;;;;33.22;11.77;;;;;;;7.61;85.51;99205.81;5014332;28;20148;-86
2023/04/14 00:14:58;;;;;;;25.45;10.18;;;;;;;7.61;84.88;99208.44;5006349;28;20042;-86
2023/04/14 00:17:25;;;;;;;27.85;9.77;;;;;;;7.56;85.52;99200.09;4989486;28;20433;-85
2023/04/14 00:19:52;;;;;;;34.85;11.52;;;;;;;7.59;85.82;99209.56;5012797;28;20049;-85
2023/04/14 00:22:20;;;;;;;29.80;10.60;;;;;;;7.58;86.23;99206.09;4993712;28;20564;-85
2023/04/14 00:24:49;;;;;;;36.13;11.57;;;;;;;7.56;86.62;99205.38;4998579;28;20038;-85
2023/04/14 00:27:16;;;;;;;36.67;10.55;;;;;;;7.59;86.32;99201.63;5001677;28;20049;-85
2023/04/14 00:29:43;;;;;;;37.85;11.38;;;;;;;7.53;86.90;99197.72;4974662;28;20050;-86
2023/04/14 00:32:10;;;;;;;31.95;11.73;;;;;;;7.59;86.78;99206.91;4994064;28;20077;-85
2023/04/14 00:34:37;;;;;;;36.05;11.65;;;;;;;7.59;87.07;99191.88;5023687;28;20514;-85
2023/04/14 00:37:04;;;;;;;32.08;11.05;;;;;;;7.53;87.18;99191.56;4996640;28;20081;-85
2023/04/14 00:39:30;;;;;;;32.25;10.50;;;;;;;7.54;87.25;99191.44;5000871;28;20045;-85
2023/04/14 00:42:02;;;;;;;37.58;11.95;;;;;;;7.49;87.94;99191.00;4979090;28;20054;-85
2023/04/14 00:44:29;;;;;;;33.22;11.70;;;;;;;7.57;87.99;99204.38;4981511;28;20049;-86
2023/04/14 00:46:59;;;;;;;30.15;11.80;;;;;;;7.63;87.66;99205.66;4997803;28;20133;-85
2023/04/14 00:49:30;;;;;;;39.83;12.00;;;;;;;7.64;87.88;99202.06;4983885;28;20046;-86
2023/04/14 00:51:57;;;;;;;35.53;11.52;;;;;;;7.58;87.85;99205.22;5002074;28;20053;-85
2023/04/14 00:54:25;;;;;;;33.33;12.75;;;;;;;7.55;88.09;99208.97;4994509;28;20046;-85
2023/04/14 00:56:52;;;;;;;29.85;11.70;;;;;;;7.58;88.27;99211.38;4995351;28;20148;-85
2023/04/14 00:59:19;;;;;;;36.67;10.90;;;;;;;7.54;88.28;99207.31;5002590;28;20060;-85
2023/04/14 01:01:46;;;;;;;30.73;11.05;;;;;;;7.57;87.96;99204.38;4997909;28;20057;-85
2023/04/14 01:04:18;;;;;;;22.88;10.10;;;;;;;7.58;87.10;99200.78;5003376;28;20049;-85
2023/04/14 01:06:45;;;;;;;26.83;8.90;;;;;;;7.56;87.29;99204.53;4993515;28;20081;-86
2023/04/14 01:09:14;;;;;;;28.02;9.20;;;;;;;7.50;86.61;99195.31;5014968;28;20126;-85
2023/04/14 01:12:01;;;;;;;28.92;10.15;;;;;;;7.39;86.65;99198.88;5003387;28;20510;-85
2023/04/14 01:14:41;;;;;;;22.25;9.57;;;;;;;7.45;87.33;99208.06;5008218;28;23018;-86
2023/04/14 01:17:14;;;;;;;21.35;7.70;;;;;;;7.36;87.17;99208.88;4986195;28;20060;-85
2023/04/14 01:19:54;;;;;;;21.55;8.85;;;;;;;7.44;87.06;99210.88;4973623;28;20140;-85
2023/04/14 01:22:25;;;;;;;22.45;9.32;;;;;;;7.38;87.94;99209.59;5002071;28;20065;-85
2023/04/14 01:25:21;;;;;;;23.77;8.50;;;;;;;7.41;86.79;99206.69;4985776;28;20042;-85
2023/04/14 01:27:56;;;;;;;24.00;9.18;;;;;;;7.37;86.81;99216.66;4996415;28;20055;-85
2023/04/14 01:30:34;;;;;;;23.95;9.20;;;;;;;7.41;87.35;99222.53;4997162;28;20140;-85
2023/04/14 01:33:04;;;;;;;24.02;9.05;;;;;;;7.34;87.57;99226.66;5000644;28;20533;-85
2023/04/14 01:35:35;;;;;;;29.77;10.27;;;;;;;7.38;87.13;99225.44;5007857;28;20581;-85
2023/04/14 01:38:07;;;;;;;26.17;9.50;;;;;;;7.32;87.29;99226.78;5010176;28;20046;-85
2023/04/14 01:40:35;;;;;;;26.80;9.60;;;;;;;7.40;87.65;99226.13;5015090;28;20565;-85
2023/04/14 01:43:08;;;;;;;31.52;11.38;;;;;;;7.33;88.04;99225.00;4996457;28;20081;-85
2023/04/14 01:45:42;;;;;;;24.20;9.15;;;;;;;7.31;88.08;99225.13;4999691;28;20057;-85
2023/04/14 01:48:10;;;;;;;21.27;9.38;;;;;;;7.33;88.21;99223.19;4982592;28;20042;-85
2023/04/14 01:50:42;;;;;;;26.55;9.93;;;;;;;7.37;87.95;99221.94;5010082;28;20639;-85
2023/04/14 01:53:12;;;;;;;24.25;9.32;;;;;;;7.35;88.20;99221.25;5014060;28;20045;-85
2023/04/14 01:55:43;;;;;;;25.65;9.85;;;;;;;7.35;87.49;99228.31;5000098;28;20056;-85
2023/04/14 01:58:12;;;;;;;35.72;12.18;;;;;;;7.30;87.46;99230.50;4980252;28;20537;-86
2023/04/14 02:00:39;;;;;;;26.17;9.85;;;;;;;7.38;87.28;99238.66;4996150;28;20072;-85
2023/04/14 02:03:06;;;;;;;22.88;9.15;;;;;;;7.34;87.01;99235.41;5006367;28;20576;-85
2023/04/14 02:05:35;;;;;;;28.52;9.02;;;;;;;7.36;87.07;99230.00;4993672;28;20045;-86
2023/04/14 02:08:05;;;;;;;27.00;9.07;;;;;;;7.35;86.88;99234.47;4999179;28;20075;-86
2023/04/14 02:10:32;;;;;;;33.28;12.32;;;;;;;7.26;87.60;99239.69;5010073;28;20041;-86
2023/04/14 02:13:03;;;;;;;31.80;10.48;;;;;;;7.24;87.46;99241.59;4998735;28;20049;-86
2023/04/14 02:15:31;;;;;;;35.28;10.38;;;;;;;7.23;87.92;99247.88;5000852;28;20158;-85
2023/04/14 02:17:58;;;;;;;31.50;11.05;;;;;;;7.22;88.35;99254.09;5018950;28;20220;-85
2023/04/14 02:20:27;;;;;;;32.20;10.73;;;;;;;7.18;88.94;99250.88;4984067;28;20087;-85
2023/04/14 02:22:53;;;;;;;27.90;10.63;;;;;;;7.20;88.46;99250.75;5001245;28;20046;-85
2023/04/14 02:25:23;;;;;;;30.88;10.63;;;;;;;7.20;88.54;99248.09;4998324;28;20426;-86
2023/04/14 02:27:49;;;;;;;30.35;10.40;;;;;;;7.21;88.35;99247.97;4999094;28;20087;-86
2023/04/14 02:30:24;;;;;;;31.42;10.57;;;;;;;7.14;88.36;99250.28;5008323;28;20050;-85
2023/04/14 02:33:05;;;;;;;24.35;10.02;;;;;;;7.14;88.40;99258.22;4988016;28;20049;-85
2023/04/14 02:35:45;;;;;;;34.85;10.63;;;;;;;7.07;88.43;99256.22;5000025;28;20041;-86
2023/04/14 02:38:18;;;;;;;33.50;10.68;;;;;;;7.06;87.77;99257.19;4977645;28;20046;-86
2023/04/14 02:40:45;;;;;;;32.28;11.32;;;;;;;7.17;87.46;99252.69;5012346;28;20091;-85
2023/04/14 02:43:19;;;;;;;28.45;11.00;;;;;;;7.13;87.46;99258.34;4998794;28;20217;-85
2023/04/14 02:45:47;;;;;;;28.50;10.27;;;;;;;7.12;87.75;99259.31;4998490;28;20225;-86
2023/04/14 02:48:17;;;;;;;25.08;9.60;;;;;;;7.07;88.37;99256.22;4983469;28;20041;-85
2023/04/14 02:50:47;;;;;;;30.00;10.10;;;;;;;7.12;88.83;99257.53;4997308;28;20090;-86
2023/04/14 02:53:21;;;;;;;31.05;10.65;;;;;;;7.07;89.15;99256.22;4999740;28;20596;-85
2023/04/14 02:55:52;;;;;;;26.20;9.75;;;;;;;7.20;88.76;99266.59;5003736;28;20054;-85
2023/04/14 02:58:20;;;;;;;30.42;9.50;;;;;;;7.13;88.10;99261.00;5000287;28;20049;-85
2023/04/14 03:00:49;;;;;;;23.20;9.13;;;;;;;7.11;87.78;99261.09;4997307;28;20045;-85
2023/04/14 03:03:17;;;;;;;27.40;10.60;;;;;;;7.13;87.74;99258.34;5016021;28;20107;-85
2023/04/14 03:05:45;;;;;;;27.40;9.85;;;;;;;7.09;87.48;99267.47;4979660;28;20046;-85
2023/04/14 03:08:15;;;;;;;28.63;9.90;;;;;;;7.00;88.03;99263.00;4993967;28;20042;-85
2023/04/14 03:10:47;;;;;;;34.50;15.98;;;;;;;6.98;87.80;99259.63;4962516;28;20056;-85
2023/04/14 03:13:17;;;;;;;42.10;20.13;;;;;;;6.95;88.41;99258.09;4996382;28;20131;-85
2023/04/14 03:15:44;;;;;;;33.22;13.98;;;;;;;6.98;88.00;99263.09;4991094;28;20060;-86
2023/04/14 03:18:13;;;;;;;32.92;12.98;;;;;;;6.92;88.80;99260.94;4984782;28;20149;-86
2023/04/14 03:20:42;;;;;;;46.22;16.95;;;;;;;6.91;88.94;99261.94;4983410;28;20631;-86
2023/04/14 03:23:11;;;;;;;37.10;12.07;;;;;;;6.90;88.70;99261.09;4993790;28;20056;-87
2023/04/14 03:25:45;;;;;;;37.97;11.27;;;;;;;6.88;89.00;99262.19;4984715;28;20050;-83
2023/04/14 03:28:19;;;;;;;37.05;10.65;;;;;;;6.87;88.28;99265.78;4999755;28;20123;-84
2023/04/14 03:30:50;;;;;;;45.28;12.73;;;;;;;6.85;89.76;99262.44;5001273;28;20049;-84
2023/04/14 03:33:21;;;;;;;66.40;11.57;;;;;;;6.83;89.27;99270.47;5014215;28;20049;-83
2023/04/14 03:35:49;;;;;;;33.05;11.25;;;;;;;6.89;88.60;99259.41;5001702;28;20056;-84
2023/04/14 03:38:17;;;;;;;32.92;11.15;;;;;;;6.93;88.50;99266.13;5015747;28;20153;-84
2023/04/14 03:40:46;;;;;;;154.50;17.33;;;;;;;6.95;87.96;99268.63;4999475;28;20084;-84
2023/04/14 03:43:21;;;;;;;50.50;12.48;;;;;;;6.91;88.13;99268.03;4976038;28;20048;-83
2023/04/14 03:45:55;;;;;;;41.88;11.20;;;;;;;6.87;88.58;99268.41;4978914;28;20041;-84
2023/04/14 03:48:25;;;;;;;42.10;10.27;;;;;;;6.85;88.25;99271.19;4985443;28;20069;-83
2023/04/14 03:50:53;;;;;;;34.95;11.02;;;;;;;6.81;88.72;99267.13;4982624;28;20052;-84
2023/04/14 03:53:20;;;;;;;59.78;12.32;;;;;;;6.80;88.80;99277.81;4985983;28;20061;-84
2023/04/14 03:55:51;;;;;;;42.50;12.13;;;;;;;6.68;88.64;99271.72;4981962;28;20057;-84
2023/04/14 03:58:20;;;;;;;35.47;10.35;;;;;;;6.72;88.76;99267.88;5000965;28;20122;-84
2023/04/14 04:00:49;;;;;;;54.90;12.27;;;;;;;6.67;88.91;99276.16;5002371;28;20041;-84
2023/04/14 04:03:17;;;;;;;49.65;12.25;;;;;;;6.67;88.75;99273.53;4987217;28;20611;-84
2023/04/14 04:05:45;;;;;;;45.22;11.45;;;;;;;6.64;88.73;99273.78;5007700;28;20112;-84
2023/04/14 04:08:12;;;;;;;86.22;12.63;;;;;;;6.67;87.87;99284.09;4979078;28;20185;-84
2023/04/14 04:10:40;;;;;;;35.20;9.68;;;;;;;6.65;88.63;99285.19;4998777;28;20600;-83
2023/04/14 04:13:10;;;;;;;60.78;11.05;;;;;;;6.61;88.37;99283.72;4996924;28;20072;-84
2023/04/14 04:15:38;;;;;;;39.05;11.20;;;;;;;6.60;88.67;99285.53;4984970;28;20413;-84
2023/04/14 04:18:06;;;;;;;60.33;10.63;;;;;;;6.63;88.63;99281.81;4998028;28;20049;-85
2023/04/14 04:20:36;;;;;;;57.33;10.43;;;;;;;6.47;87.46;99275.13;4973967;28;20050;-84
2023/04/14 04:23:05;;;;;;;38.30;9.18;;;;;;;6.52;87.71;99277.41;4998150;28;20536;-84
2023/04/14 04:25:34;;;;;;;39.45;10.40;;;;;;;6.57;87.41;99277.88;4997034;28;20053;-84
2023/04/14 04:28:10;;;;;;;59.30;11.05;;;;;;;6.45;87.19;99273.59;4997312;28;20069;-84
2023/04/14 04:30:40;;;;;;;44.80;10.05;;;;;;;6.40;87.51;99273.13;4982240;28;20126;-84
2023/04/14 04:33:09;;;;;;;65.97;9.90;;;;;;;6.39;87.39;99279.38;4996465;28;20518;-84
2023/04/14 04:35:36;;;;;;;117.18;12.65;;;;;;;6.37;86.60;99278.66;5010712;28;20750;-84
2023/04/14 04:38:10;;;;;;;24.85;6.72;;;;;;;6.43;85.98;99283.41;5003867;28;20064;-84
2023/04/14 04:40:39;;;;;;;42.97;8.87;;;;;;;6.36;85.59;99277.81;4987160;28;20077;-84
2023/04/14 04:43:13;;;;;;;29.65;9.07;;;;;;;6.37;85.46;99281.28;4979508;28;20666;-85
2023/04/14 04:46:04;;;;;;;113.55;12.38;;;;;;;6.18;86.00;99288.03;4999969;28;20196;-84
2023/04/14 04:48:31;;;;;;;45.92;8.93;;;;;;;6.18;86.86;99298.56;4971385;28;20057;-84
2023/04/14 04:50:58;;;;;;;41.25;8.32;;;;;;;6.13;86.67;99291.97;4999312;28;20057;-84
2023/04/14 04:53:24;;;;;;;125.72;11.68;;;;;;;6.18;86.23;99289.81;4985382;28;20422;-84
2023/04/14 04:55:51;;;;;;;28.95;6.88;;;;;;;6.16;85.97;99286.47;5010494;28;20045;-84
2023/04/14 04:58:18;;;;;;;50.40;9.63;;;;;;;6.13;86.67;99292.81;5001444;28;20044;-84
2023/04/14 05:00:45;;;;;;;27.27;7.82;;;;;;;5.98;86.67;99288.72;5013368;28;20162;-84
2023/04/14 05:03:12;;;;;;;39.53;7.32;;;;;;;6.10;86.65;99287.75;5007743;28;20054;-84
2023/04/14 05:05:39;;;;;;;53.38;8.55;;;;;;;6.01;86.60;99284.06;5012024;28;20049;-83
2023/04/14 05:08:06;;;;;;;23.17;7.15;;;;;;;6.05;86.77;99295.19;5007068;28;20128;-84
2023/04/14 05:10:35;;;;;;;51.78;8.45;;;;;;;6.03;85.57;99283.94;4977682;28;20073;-83
2023/04/14 05:13:02;;;;;;;17.23;6.97;;;;;;;6.02;85.50;99279.63;5007432;28;20148;-84
2023/04/14 05:15:29;;;;;;;30.85;7.03;;;;;;;5.91;85.61;99290.97;5001348;28;20128;-84
2023/04/14 05:17:57;;;;;;;32.10;7.50;;;;;;;5.95;84.65;99281.91;5005798;28;20396;-84
2023/04/14 05:20:24;;;;;;;50.33;7.40;;;;;;;5.96;85.21;99293.28;4997591;28;20061;-84
2023/04/14 05:22:52;;;;;;;66.78;9.35;;;;;;;5.86;84.78;99293.13;4991596;28;20082;-84
2023/04/14 05:25:18;;;;;;;29.00;7.55;;;;;;;5.86;86.04;99299.25;4982185;28;20053;-84
2023/04/14 05:27:45;;;;;;;18.60;6.30;;;;;;;5.87;85.22;99292.16;5009860;28;20046;-84
2023/04/14 05:30:12;;;;;;;31.25;9.57;;;;;;;5.79;85.42;99291.94;5006119;28;20048;-84
2023/04/14 05:32:39;;;;;;;21.58;6.90;;;;;;;5.87;85.64;99290.38;4999575;28;20050;-84
2023/04/14 05:35:06;;;;;;;23.65;7.38;;;;;;;5.87;85.29;99300.91;4997542;28;20065;-84
2023/04/14 05:37:33;;;;;;;32.08;8.13;;;;;;;5.88;85.11;99296.50;5011199;28;20368;-84
2023/04/14 05:40:02;;;;;;;42.97;7.60;;;;;;;5.85;85.20;99288.81;4994804;28;20050;-84
2023/04/14 05:42:29;;;;;;;25.45;6.47;;;;;;;5.87;85.23;99293.00;5010168;28;20123;-84
2023/04/14 05:44:56;;;;;;;29.27;6.38;;;;;;;5.95;84.91;99291.59;5014829;28;20065;-84
2023/04/14 05:47:23;;;;;;;23.88;6.07;;;;;;;5.97;84.38;99302.88;4991666;28;20141;-84
2023/04/14 05:49:50;;;;;;;33.10;7.10;;;;;;;5.95;84.45;99307.41;5001696;28;20819;-84
2023/04/14 05:52:16;;;;;;;20.15;6.85;;;;;;;5.92;85.40;99313.72;5010803;28;20048;-84
2023/04/14 05:54:43;;;;;;;33.88;7.35;;;;;;;5.98;85.67;99307.16;5002009;28;20053;-84
2023/04/14 05:57:10;;;;;;;22.58;7.40;;;;;;;5.93;86.13;99306.66;5020434;28;20041;-84
2023/04/14 05:59:37;;;;;;;40.65;7.15;;;;;;;6.11;86.52;99326.38;5000468;28;20046;-84
2023/04/14 06:02:05;;;;;;;25.05;8.55;;;;;;;6.15;85.60;99319.88;4993023;28;20042;-84
2023/04/14 06:04:33;;;;;;;34.40;8.48;;;;;;;6.03;85.65;99324.31;5013264;28;20072;-84
2023/04/14 06:07:01;;;;;;;22.88;7.97;;;;;;;6.12;85.67;99328.03;4994119;28;20769;-83
2023/04/14 06:09:28;;;;;;;36.97;9.93;;;;;;;6.09;85.46;99333.53;5002493;28;20073;-84
2023/04/14 06:11:55;;;;;;;41.53;13.43;;;;;;;6.29;84.89;99332.81;4999435;28;20144;-84
2023/04/14 06:14:22;;;;;;;34.40;10.65;;;;;;;6.21;84.72;99329.97;5011240;28;20058;-84
2023/04/14 06:16:49;;;;;;;42.20;11.35;;;;;;;6.33;84.96;99330.78;5006001;28;20068;-84
2023/04/14 06:19:19;;;;;;;31.92;10.63;;;;;;;6.38;84.22;99333.88;4970479;28;20069;-84
2023/04/14 06:21:46;;;;;;;29.77;12.02;;;;;;;6.40;85.42;99333.78;4987782;28;20042;-84
2023/04/14 06:24:13;;;;;;;35.85;11.43;;;;;;;6.50;84.68;99332.09;4996502;28;20607;-84
2023/04/14 06:26:40;;;;;;;33.75;11.32;;;;;;;6.58;84.28;99342.03;5013672;28;20049;-84
2023/04/14 06:29:06;;;;;;;28.70;9.38;;;;;;;6.61;84.10;99332.06;5016503;28;20045;-84
2023/04/14 06:31:33;;;;;;;23.00;9.43;;;;;;;6.59;83.52;99338.41;5000590;28;20061;-84
2023/04/14 06:34:00;;;;;;;23.92;9.90;;;;;;;6.79;83.61;99328.91;5007673;28;20044;-83
2023/04/14 06:36:27;;;;;;;31.83;10.15;;;;;;;6.64;84.88;99342.38;5007634;28;20046;-84
2023/04/14 06:38:55;;;;;;;26.52;9.27;;;;;;;6.76;84.11;99342.34;5007436;28;20493;-84
2023/04/14 06:41:23;;;;;;;26.17;9.23;;;;;;;6.81;83.34;99338.38;5008047;28;20041;-84
2023/04/14 06:43:50;;;;;;;30.90;10.40;;;;;;;6.92;85.05;99342.78;4990311;28;20057;-84
2023/04/14 06:46:16;;;;;;;25.38;8.93;;;;;;;6.92;84.08;99342.78;5002540;28;20121;-85
2023/04/14 06:48:43;;;;;;;19.77;8.20;;;;;;;6.97;83.41;99332.69;5000845;28;20449;-83
2023/04/14 06:51:11;;;;;;;24.85;8.27;;;;;;;7.00;83.27;99334.25;4983652;28;20399;-85
2023/04/14 06:53:38;;;;;;;21.50;7.93;;;;;;;7.11;82.82;99335.03;4992923;28;20049;-84
2023/04/14 06:56:05;;;;;;;23.63;6.85;;;;;;;7.21;81.96;99329.84;5017514;28;20056;-84
2023/04/14 06:58:32;;;;;;;20.88;7.72;;;;;;;7.35;82.18;99333.97;5009465;28;20064;-85
2023/04/14 07:01:00;;;;;;;24.60;7.65;;;;;;;7.43;81.86;99331.56;4985559;28;20057;-85
2023/04/14 07:03:29;;;;;;;17.33;7.22;;;;;;;7.43;81.30;99328.91;4985281;28;20379;-84
2023/04/14 07:06:03;;;;;;;21.52;6.95;;;;;;;7.48;80.72;99324.06;4985504;28;20406;-84
2023/04/14 07:08:31;;;;;;;25.38;7.28;;;;;;;7.64;81.45;99312.22;5012371;28;20050;-85
2023/04/14 07:11:00;;;;;;;24.85;6.78;;;;;;;7.67;80.99;99320.72;4985603;28;20056;-85
2023/04/14 07:13:28;;;;;;;18.05;6.65;;;;;;;7.74;81.37;99326.31;5009940;28;20065;-85
2023/04/14 07:15:55;;;;;;;30.42;7.13;;;;;;;7.76;81.39;99319.09;5010278;28;20518;-85
2023/04/14 07:18:21;;;;;;;21.33;6.50;;;;;;;7.83;80.87;99317.59;5000066;28;20059;-85
2023/04/14 07:20:51;;;;;;;24.35;6.57;;;;;;;7.87;81.42;99315.53;4982082;28;20053;-84
2023/04/14 07:23:18;;;;;;;17.20;6.95;;;;;;;7.93;81.84;99301.78;5006639;28;20052;-85
2023/04/14 07:25:52;;;;;;;21.98;6.88;;;;;;;7.89;81.34;99301.22;4998534;28;20049;-84
2023/04/14 07:28:19;;;;;;;21.42;6.63;;;;;;;7.94;81.35;99295.56;5006041;28;20120;-85
2023/04/14 07:30:46;;;;;;;23.23;7.05;;;;;;;7.97;80.85;99284.72;4997598;28;20043;-85
2023/04/14 07:33:13;;;;;;;16.23;6.15;;;;;;;8.01;80.79;99286.97;5002850;28;20327;-85
2023/04/14 07:35:40;;;;;;;17.40;6.47;;;;;;;8.00;80.50;99282.63;4993425;28;20106;-85
2023/04/14 07:38:25;;;;;;;26.67;6.47;;;;;;;7.99;80.25;99280.13;5006002;28;20087;-85
2023/04/14 07:40:52;;;;;;;19.25;6.97;;;;;;;7.99;79.96;99280.13;5002561;28;20053;-85
2023/04/14 07:43:18;;;;;;;29.10;8.23;;;;;;;8.07;80.08;99282.09;5002626;28;20073;-85
2023/04/14 07:45:45;;;;;;;22.27;7.68;;;;;;;8.10;80.23;99274.72;5002284;28;20053;-84
2023/04/14 07:48:12;;;;;;;18.30;6.40;;;;;;;8.18;80.80;99279.34;4980914;28;20046;-85
2023/04/14 07:50:39;;;;;;;19.55;7.05;;;;;;;8.24;80.99;99282.31;4978508;28;20045;-85
2023/04/14 07:53:05;;;;;;;25.10;7.70;;;;;;;8.29;81.18;99278.41;5001318;28;20052;-85
2023/04/14 07:55:32;;;;;;;24.73;7.80;;;;;;;8.31;81.39;99277.28;5008200;28;20041;-85
2023/04/14 07:57:59;;;;;;;25.88;6.75;;;;;;;8.31;81.11;99277.28;5017805;28;20053;-85
2023/04/14 08:00:26;;;;;;;19.48;7.00;;;;;;;8.43;81.31;99280.72;4984913;28;20510;-86
2023/04/14 08:02:53;;;;;;;22.17;8.32;;;;;;;8.48;81.32;99281.16;4989456;28;20677;-85
2023/04/14 08:05:20;;;;;;;27.83;6.88;;;;;;;8.55;81.45;99279.63;5009449;28;20072;-85
2023/04/14 08:07:48;;;;;;;21.00;6.07;;;;;;;8.60;81.22;99282.69;4976965;28;20573;-86
2023/04/14 08:10:15;;;;;;;20.65;6.35;;;;;;;8.60;80.76;99282.69;4996187;28;20045;-85
2023/04/14 08:12:41;;;;;;;35.33;7.75;;;;;;;8.63;80.48;99284.25;4990707;28;20053;-85
2023/04/14 08:15:08;;;;;;;22.20;6.75;;;;;;;8.68;81.42;99285.50;5012391;28;20046;-85
2023/04/14 08:17:35;;;;;;;19.90;7.00;;;;;;;8.74;81.58;99273.50;4994658;28;20046;-86
2023/04/14 08:20:02;;;;;;;29.85;7.38;;;;;;;8.73;81.44;99281.59;5017631;28;20080;-85
2023/04/14 08:22:29;;;;;;;35.25;8.40;;;;;;;8.67;82.46;99278.50;4999290;28;20053;-86
2023/04/14 08:24:56;;;;;;;24.65;7.78;;;;;;;8.67;82.26;99270.56;5008971;28;20050;-86
2023/04/14 08:27:22;;;;;;;21.42;6.90;;;;;;;8.74;81.20;99285.91;4988337;28;20053;-85
2023/04/14 08:29:50;;;;;;;21.48;7.13;;;;;;;8.68;81.42;99279.38;5002236;28;20037;-86
2023/04/14 08:32:17;;;;;;;21.83;6.00;;;;;;;8.71;81.71;99271.16;5014094;28;20128;-86
2023/04/14 08:34:44;;;;;;;27.10;6.18;;;;;;;8.77;81.10;99278.53;5018551;28;20410;-85
2023/04/14 08:37:30;;;;;;;23.45;6.13;;;;;;;8.79;79.81;99281.06;4993324;28;20169;-85
2023/04/14 08:39:57;;;;;;;22.85;6.22;;;;;;;8.81;79.46;99273.81;5013576;28;20141;-85
2023/04/14 08:42:24;;;;;;;26.77;6.60;;;;;;;8.85;79.58;99269.91;4982126;28;20072;-86
2023/04/14 08:44:52;;;;;;;24.88;6.63;;;;;;;8.87;79.47;99268.78;5000322;28;20056;-85
2023/04/14 08:47:20;;;;;;;19.23;5.53;;;;;;;8.90;79.61;99268.53;5003809;28;20053;-86
2023/04/14 08:49:55;;;;;;;20.83;5.60;;;;;;;8.89;79.71;99266.84;5019531;28;20100;-86
2023/04/14 08:52:26;;;;;;;18.90;4.97;;;;;;;8.97;79.81;99258.19;4996606;28;20041;-85
2023/04/14 08:54:55;;;;;;;16.83;4.18;;;;;;;9.00;77.92;99255.25;5006962;28;20045;-85
2023/04/14 08:57:25;;;;;;;22.17;4.45;;;;;;;9.06;78.38;99257.38;4997645;28;20402;-86
2023/04/14 08:59:55;;;;;;;17.08;3.92;;;;;;;9.10;78.65;99256.09;4991464;28;20204;-84
2023/04/14 09:02:22;;;;;;;37.03;5.20;;;;;;;9.16;78.24;99257.38;4966553;28;20419;-85
2023/04/14 09:04:49;;;;;;;22.70;4.22;;;;;;;9.20;77.78;99260.56;4994317;28;20073;-86
2023/04/14 09:07:18;;;;;;;24.80;5.25;;;;;;;9.19;77.94;99251.78;4999698;28;20100;-85
2023/04/14 09:09:45;;;;;;;18.58;4.50;;;;;;;9.22;76.57;99259.44;4981902;28;20041;-86
2023/04/14 09:12:16;;;;;;;21.40;4.57;;;;;;;9.28;74.68;99245.63;4980088;28;20393;-86
2023/04/14 09:14:43;;;;;;;20.27;5.18;;;;;;;9.27;76.00;99243.97;4991649;28;20612;-85
2023/04/14 09:17:10;;;;;;;21.05;3.97;;;;;;;9.32;76.45;99246.19;4989086;28;20744;-86
2023/04/14 09:19:37;;;;;;;20.42;4.13;;;;;;;9.38;76.47;99240.31;4990276;28;20533;-85
2023/04/14 09:22:25;;;;;;;15.00;3.30;;;;;;;9.39;76.18;99234.03;5000874;28;20502;-85
2023/04/14 09:24:52;;;;;;;21.15;4.00;;;;;;;9.40;76.04;99225.09;5004449;28;20516;-85
2023/04/14 09:27:19;;;;;;;18.17;4.38;;;;;;;9.44;75.43;99236.25;5002003;28;20682;-85
2023/04/14 09:29:46;;;;;;;15.18;3.75;;;;;;;9.49;74.84;99221.59;5001952;28;20049;-85
2023/04/14 09:32:13;;;;;;;15.00;4.25;;;;;;;9.50;74.31;99219.78;5003970;28;20050;-85
2023/04/14 09:34:53;;;;;;;16.73;4.15;;;;;;;9.53;72.15;99216.84;5016317;28;20040;-85
2023/04/14 09:37:23;;;;;;;19.55;4.28;;;;;;;9.59;74.22;99224.19;4998911;28;20046;-86
2023/04/14 09:39:51;;;;;;;20.38;5.20;;;;;;;9.64;74.35;99214.03;4980195;28;20135;-86
2023/04/14 09:42:17;;;;;;;14.43;4.75;;;;;;;9.64;74.33;99215.81;4982760;28;20095;-86
2023/04/14 09:44:57;;;;;;;13.30;3.78;;;;;;;9.65;70.71;99223.63;5002585;28;20045;-86
2023/04/14 09:47:25;;;;;;;15.75;3.90;;;;;;;9.72;73.12;99215.97;4997498;28;20041;-85
2023/04/14 09:49:56;;;;;;;18.70;4.28;;;;;;;9.74;73.81;99222.78;4985398;28;20049;-85
2023/04/14 09:52:36;;;;;;;17.15;4.63;;;;;;;9.75;74.53;99221.78;4984782;28;20065;-85
2023/04/14 09:55:13;;;;;;;14.85;3.42;;;;;;;9.79;74.40;99214.38;5017221;28;20042;-86
2023/04/14 09:57:41;;;;;;;20.85;3.45;;;;;;;9.84;74.63;99206.81;5002686;28;20049;-85
2023/04/14 10:00:26;;;;;;;20.08;4.72;;;;;;;9.85;73.90;99207.66;4999701;28;20418;-85
2023/04/14 10:02:54;;;;;;;23.20;3.85;;;;;;;9.95;73.71;99216.41;4979057;28;20053;-85
2023/04/14 10:05:26;;;;;;;18.58;3.60;;;;;;;9.95;72.28;99216.41;4996477;28;20997;-86
2023/04/14 10:07:53;;;;;;;17.80;3.83;;;;;;;10.00;72.73;99216.81;4984157;28;20402;-86
2023/04/14 10:10:21;;;;;;;13.07;3.22;;;;;;;10.02;72.93;99203.38;5016506;28;20743;-86
2023/04/14 10:12:48;;;;;;;15.57;3.85;;;;;;;9.98;72.36;99186.94;4974509;28;20041;-87
2023/04/14 10:15:16;;;;;;;7.03;3.60;;;;;;;10.04;72.28;99198.78;5006250;28;20056;-86
2023/04/14 10:17:42;;;;;;;14.38;3.00;;;;;;;10.11;72.21;99205.16;4985056;28;20465;-85
2023/04/14 10:20:10;;;;;;;20.52;3.53;;;;;;;10.12;72.02;99199.69;4996228;28;20128;-85
2023/04/14 10:22:37;;;;;;;18.77;3.20;;;;;;;10.15;71.76;99195.91;4982715;28;20053;-85
2023/04/14 10:25:09;;;;;;;15.65;3.30;;;;;;;10.16;72.07;99190.47;4976503;28;20125;-85
2023/04/14 10:27:37;;;;;;;14.70;3.78;;;;;;;10.21;71.71;99188.19;5007560;28;20123;-85
2023/04/14 10:30:04;;;;;;;19.17;3.42;;;;;;;10.22;71.85;99187.19;4980017;28;20458;-85
2023/04/14 10:32:33;;;;;;;11.95;3.17;;;;;;;10.27;71.59;99193.88;5008877;28;20052;-85
2023/04/14 10:35:08;;;;;;;11.13;3.22;;;;;;;10.25;70.18;99183.41;5016696;28;20053;-85
2023/04/14 10:37:35;;;;;;;17.40;3.08;;;;;;;10.31;71.28;99180.22;4999698;28;20053;-86
2023/04/14 10:40:05;;;;;;;17.88;3.28;;;;;;;10.37;71.12;99181.41;4978251;28;20503;-85
2023/04/14 10:42:53;;;;;;;16.92;3.15;;;;;;;10.34;70.07;99176.41;4999350;28;20164;-85
2023/04/14 10:45:21;;;;;;;13.13;2.88;;;;;;;10.41;70.43;99170.34;4977830;28;20088;-85
2023/04/14 10:47:49;;;;;;;16.05;3.80;;;;;;;10.43;70.32;99170.19;5011340;28;20084;-88
2023/04/14 10:50:16;;;;;;;10.07;2.50;;;;;;;10.47;69.72;99162.78;4995251;28;20048;-86
2023/04/14 10:52:50;;;;;;;18.85;2.70;;;;;;;10.45;68.70;99156.78;5003289;28;20064;-86
2023/04/14 10:55:23;;;;;;;11.02;3.45;;;;;;;10.47;65.72;99152.97;4982929;28;20065;-85
2023/04/14 10:57:53;;;;;;;12.95;2.47;;;;;;;10.54;68.38;99159.38;5003752;28;20156;-86
2023/04/14 11:00:24;;;;;;;12.38;2.72;;;;;;;10.56;67.13;99148.59;4982698;28;20049;-86
2023/04/14 11:03:02;;;;;;;17.80;2.80;;;;;;;10.56;65.67;99145.94;4993059;28;20148;-86
2023/04/14 11:05:32;;;;;;;15.73;2.95;;;;;;;10.62;66.59;99134.69;4980716;28;20103;-85
2023/04/14 11:08:00;;;;;;;14.68;3.28;;;;;;;10.64;65.78;99122.13;5006996;28;20539;-86
2023/04/14 11:10:31;;;;;;;12.55;1.98;;;;;;;10.68;66.57;99138.56;5016303;28;20049;-86
2023/04/14 11:13:07;;;;;;;19.52;2.83;;;;;;;10.72;64.77;99135.44;5015165;28;20049;-86
2023/04/14 11:15:56;;;;;;;15.07;2.33;;;;;;;10.77;64.06;99130.50;4982042;28;20046;-86
2023/04/14 11:18:29;;;;;;;8.27;2.38;;;;;;;10.81;64.61;99117.75;5000157;28;20124;-86
2023/04/14 11:21:05;;;;;;;9.30;2.50;;;;;;;10.83;62.82;99113.13;4978848;28;20056;-86
2023/04/14 11:23:33;;;;;;;13.02;2.20;;;;;;;10.92;64.58;99106.88;5005544;28;20123;-86
2023/04/14 11:26:00;;;;;;;10.65;2.50;;;;;;;10.96;64.01;99107.41;4974528;28;20391;-86
2023/04/14 11:28:31;;;;;;;14.00;4.13;;;;;;;10.98;62.11;99094.78;4982904;28;20159;-85
2023/04/14 11:30:59;;;;;;;14.80;2.83;;;;;;;11.05;63.75;99101.16;5009605;28;20054;-85
2023/04/14 11:33:30;;;;;;;8.98;2.38;;;;;;;11.06;64.15;99113.44;4967647;28;20705;-85
2023/04/14 11:35:57;;;;;;;12.73;1.98;;;;;;;11.12;61.81;99106.66;5011328;28;20124;-86
2023/04/14 11:38:24;;;;;;;15.10;2.42;;;;;;;11.05;62.29;99098.50;5000253;28;20080;-85